Terminal Aerodrome Forecast
Issued by NWS Charleston, SC

Home | Current Version | Previous Version | Text Only | Print | Product List | Glossary On
Versions: 1 2 3 4 5 6 7 8 9 10 11 12
664
FTUS42 KCHS 211722
TAFSAV
TAF
KSAV 211722Z 2118/2218 10010KT P6SM SCT040
     FM212200 12010KT P6SM BKN040
     FM220500 10004KT P6SM BKN060=

USA.gov is the U.S. government's official web portal to all federal, state and local government web resources and services.